sensor_id;sensor_type;location;lat;lon;timestamp;temperature;humidity
72772;SHT30;60894;42.544;1.516;2023-05-07T00:00:47;13.83;67.91
72772;SHT30;60894;42.544;1.516;2023-05-07T00:03:15;13.87;67.99
72772;SHT30;60894;42.544;1.516;2023-05-07T00:05:43;13.93;68.36
72772;SHT30;60894;42.544;1.516;2023-05-07T00:08:11;13.90;68.57
72772;SHT30;60894;42.544;1.516;2023-05-07T00:10:37;13.87;67.57
72772;SHT30;60894;42.544;1.516;2023-05-07T00:13:04;13.93;66.91
72772;SHT30;60894;42.544;1.516;2023-05-07T00:15:31;13.97;68.72
72772;SHT30;60894;42.544;1.516;2023-05-07T00:17:58;13.97;69.20
72772;SHT30;60894;42.544;1.516;2023-05-07T00:20:25;13.99;68.63
72772;SHT30;60894;42.544;1.516;2023-05-07T00:22:54;14.07;67.93
72772;SHT30;60894;42.544;1.516;2023-05-07T00:25:20;14.10;68.52
72772;SHT30;60894;42.544;1.516;2023-05-07T00:27:47;14.05;68.96
72772;SHT30;60894;42.544;1.516;2023-05-07T00:30:15;13.85;70.47
72772;SHT30;60894;42.544;1.516;2023-05-07T00:32:41;13.69;71.22
72772;SHT30;60894;42.544;1.516;2023-05-07T00:35:11;13.65;71.42
72772;SHT30;60894;42.544;1.516;2023-05-07T00:37:38;13.58;71.48
72772;SHT30;60894;42.544;1.516;2023-05-07T00:40:07;13.52;71.94
72772;SHT30;60894;42.544;1.516;2023-05-07T00:42:35;13.44;73.02
72772;SHT30;60894;42.544;1.516;2023-05-07T00:45:02;13.59;72.16
72772;SHT30;60894;42.544;1.516;2023-05-07T00:47:29;13.48;71.80
72772;SHT30;60894;42.544;1.516;2023-05-07T00:49:57;13.32;73.30
72772;SHT30;60894;42.544;1.516;2023-05-07T00:52:25;13.29;74.16
72772;SHT30;60894;42.544;1.516;2023-05-07T00:54:52;13.21;74.18
72772;SHT30;60894;42.544;1.516;2023-05-07T00:57:23;13.34;74.53
72772;SHT30;60894;42.544;1.516;2023-05-07T00:59:51;13.38;73.82
72772;SHT30;60894;42.544;1.516;2023-05-07T01:02:18;13.35;73.05
72772;SHT30;60894;42.544;1.516;2023-05-07T01:04:45;13.38;73.06
72772;SHT30;60894;42.544;1.516;2023-05-07T01:07:12;13.32;72.61
72772;SHT30;60894;42.544;1.516;2023-05-07T01:09:40;13.29;73.21
72772;SHT30;60894;42.544;1.516;2023-05-07T01:12:07;13.29;73.48
72772;SHT30;60894;42.544;1.516;2023-05-07T01:14:36;13.21;74.64
72772;SHT30;60894;42.544;1.516;2023-05-07T01:17:03;13.11;75.40
72772;SHT30;60894;42.544;1.516;2023-05-07T01:19:30;13.11;73.84
72772;SHT30;60894;42.544;1.516;2023-05-07T01:22:02;13.12;73.30
72772;SHT30;60894;42.544;1.516;2023-05-07T01:24:32;13.05;73.89
72772;SHT30;60894;42.544;1.516;2023-05-07T01:26:59;12.88;74.06
72772;SHT30;60894;42.544;1.516;2023-05-07T01:29:28;12.77;74.81
72772;SHT30;60894;42.544;1.516;2023-05-07T01:31:57;12.87;75.44
72772;SHT30;60894;42.544;1.516;2023-05-07T01:34:25;12.88;77.26
72772;SHT30;60894;42.544;1.516;2023-05-07T01:36:54;12.90;78.21
72772;SHT30;60894;42.544;1.516;2023-05-07T01:39:24;12.91;78.23
72772;SHT30;60894;42.544;1.516;2023-05-07T01:41:54;12.84;78.97
72772;SHT30;60894;42.544;1.516;2023-05-07T01:44:22;12.76;79.06
72772;SHT30;60894;42.544;1.516;2023-05-07T01:46:49;12.72;78.81
72772;SHT30;60894;42.544;1.516;2023-05-07T01:49:16;12.79;78.59
72772;SHT30;60894;42.544;1.516;2023-05-07T01:51:43;12.76;79.03
72772;SHT30;60894;42.544;1.516;2023-05-07T01:54:10;12.73;80.02
72772;SHT30;60894;42.544;1.516;2023-05-07T01:56:37;12.73;79.02
72772;SHT30;60894;42.544;1.516;2023-05-07T01:59:06;12.73;79.97
72772;SHT30;60894;42.544;1.516;2023-05-07T02:01:33;12.57;79.20
72772;SHT30;60894;42.544;1.516;2023-05-07T02:04:00;12.72;80.15
72772;SHT30;60894;42.544;1.516;2023-05-07T02:06:27;12.66;81.55
72772;SHT30;60894;42.544;1.516;2023-05-07T02:08:53;12.68;81.31
72772;SHT30;60894;42.544;1.516;2023-05-07T02:11:20;12.73;81.33
72772;SHT30;60894;42.544;1.516;2023-05-07T02:13:47;12.84;81.18
72772;SHT30;60894;42.544;1.516;2023-05-07T02:16:16;12.83;81.04
72772;SHT30;60894;42.544;1.516;2023-05-07T02:18:43;12.84;80.10
72772;SHT30;60894;42.544;1.516;2023-05-07T02:21:09;12.84;79.88
72772;SHT30;60894;42.544;1.516;2023-05-07T02:23:36;12.80;78.96
72772;SHT30;60894;42.544;1.516;2023-05-07T02:26:04;12.84;79.20
72772;SHT30;60894;42.544;1.516;2023-05-07T02:28:31;12.76;79.67
72772;SHT30;60894;42.544;1.516;2023-05-07T02:30:58;12.68;80.03
72772;SHT30;60894;42.544;1.516;2023-05-07T02:33:27;12.70;80.56
72772;SHT30;60894;42.544;1.516;2023-05-07T02:35:54;12.67;80.26
72772;SHT30;60894;42.544;1.516;2023-05-07T02:38:21;12.61;79.51
72772;SHT30;60894;42.544;1.516;2023-05-07T02:40:48;12.46;80.20
72772;SHT30;60894;42.544;1.516;2023-05-07T02:43:15;12.43;80.55
72772;SHT30;60894;42.544;1.516;2023-05-07T02:45:42;12.35;81.19
72772;SHT30;60894;42.544;1.516;2023-05-07T02:48:09;12.32;81.14
72772;SHT30;60894;42.544;1.516;2023-05-07T02:50:38;12.23;80.89
72772;SHT30;60894;42.544;1.516;2023-05-07T02:53:05;12.21;79.58
72772;SHT30;60894;42.544;1.516;2023-05-07T02:55:32;12.04;80.02
72772;SHT30;60894;42.544;1.516;2023-05-07T02:57:58;12.12;80.27
72772;SHT30;60894;42.544;1.516;2023-05-07T03:00:25;12.15;81.09
72772;SHT30;60894;42.544;1.516;2023-05-07T03:02:52;12.21;79.06
72772;SHT30;60894;42.544;1.516;2023-05-07T03:05:19;12.16;77.93
72772;SHT30;60894;42.544;1.516;2023-05-07T03:07:48;12.16;78.28
72772;SHT30;60894;42.544;1.516;2023-05-07T03:10:15;12.26;78.86
72772;SHT30;60894;42.544;1.516;2023-05-07T03:12:42;12.22;78.96
72772;SHT30;60894;42.544;1.516;2023-05-07T03:15:09;12.36;76.91
72772;SHT30;60894;42.544;1.516;2023-05-07T03:17:38;12.32;77.88
72772;SHT30;60894;42.544;1.516;2023-05-07T03:20:06;12.04;78.50
72772;SHT30;60894;42.544;1.516;2023-05-07T03:22:33;11.88;78.63
72772;SHT30;60894;42.544;1.516;2023-05-07T03:25:02;11.98;80.43
72772;SHT30;60894;42.544;1.516;2023-05-07T03:27:29;11.99;81.03
72772;SHT30;60894;42.544;1.516;2023-05-07T03:29:55;12.05;80.71
72772;SHT30;60894;42.544;1.516;2023-05-07T03:32:22;12.26;79.78
72772;SHT30;60894;42.544;1.516;2023-05-07T03:34:49;12.25;78.72
72772;SHT30;60894;42.544;1.516;2023-05-07T03:37:16;12.09;78.85
72772;SHT30;60894;42.544;1.516;2023-05-07T03:39:43;11.99;79.23
72772;SHT30;60894;42.544;1.516;2023-05-07T03:42:12;12.08;79.36
72772;SHT30;60894;42.544;1.516;2023-05-07T03:44:39;12.06;78.61
72772;SHT30;60894;42.544;1.516;2023-05-07T03:47:06;12.05;78.14
72772;SHT30;60894;42.544;1.516;2023-05-07T03:49:33;12.02;79.62
72772;SHT30;60894;42.544;1.516;2023-05-07T03:52:00;12.08;80.35
72772;SHT30;60894;42.544;1.516;2023-05-07T03:54:27;12.14;80.12
72772;SHT30;60894;42.544;1.516;2023-05-07T03:56:54;12.12;79.19
72772;SHT30;60894;42.544;1.516;2023-05-07T03:59:22;12.11;79.44
72772;SHT30;60894;42.544;1.516;2023-05-07T04:01:49;12.14;79.12
72772;SHT30;60894;42.544;1.516;2023-05-07T04:04:16;11.95;80.11
72772;SHT30;60894;42.544;1.516;2023-05-07T04:06:43;11.98;80.02
72772;SHT30;60894;42.544;1.516;2023-05-07T04:09:10;11.94;79.89
72772;SHT30;60894;42.544;1.516;2023-05-07T04:11:37;11.94;79.88
72772;SHT30;60894;42.544;1.516;2023-05-07T04:14:05;11.92;79.90
72772;SHT30;60894;42.544;1.516;2023-05-07T04:16:34;12.11;80.25
72772;SHT30;60894;42.544;1.516;2023-05-07T04:19:01;12.01;79.77
72772;SHT30;60894;42.544;1.516;2023-05-07T04:21:28;11.99;79.52
72772;SHT30;60894;42.544;1.516;2023-05-07T04:23:56;11.84;79.51
72772;SHT30;60894;42.544;1.516;2023-05-07T04:26:22;11.79;79.62
72772;SHT30;60894;42.544;1.516;2023-05-07T04:28:49;11.81;79.08
72772;SHT30;60894;42.544;1.516;2023-05-07T04:31:16;11.85;79.39
72772;SHT30;60894;42.544;1.516;2023-05-07T04:33:45;11.86;79.14
72772;SHT30;60894;42.544;1.516;2023-05-07T04:36:12;11.85;79.12
72772;SHT30;60894;42.544;1.516;2023-05-07T04:38:39;11.95;79.34
72772;SHT30;60894;42.544;1.516;2023-05-07T04:41:09;11.94;79.33
72772;SHT30;60894;42.544;1.516;2023-05-07T04:43:36;11.98;79.21
72772;SHT30;60894;42.544;1.516;2023-05-07T04:46:03;11.91;79.04
72772;SHT30;60894;42.544;1.516;2023-05-07T04:48:30;11.81;79.38
72772;SHT30;60894;42.544;1.516;2023-05-07T04:50:58;11.78;79.05
72772;SHT30;60894;42.544;1.516;2023-05-07T04:53:25;11.71;79.71
72772;SHT30;60894;42.544;1.516;2023-05-07T04:55:55;11.73;79.81
72772;SHT30;60894;42.544;1.516;2023-05-07T04:58:22;11.74;80.41
72772;SHT30;60894;42.544;1.516;2023-05-07T05:00:49;11.74;80.23
72772;SHT30;60894;42.544;1.516;2023-05-07T05:03:16;11.73;79.99
72772;SHT30;60894;42.544;1.516;2023-05-07T05:05:43;11.70;80.53
72772;SHT30;60894;42.544;1.516;2023-05-07T05:08:12;11.75;80.08
72772;SHT30;60894;42.544;1.516;2023-05-07T05:10:39;11.86;80.05
72772;SHT30;60894;42.544;1.516;2023-05-07T05:13:07;11.78;80.76
72772;SHT30;60894;42.544;1.516;2023-05-07T05:15:34;11.74;80.54
72772;SHT30;60894;42.544;1.516;2023-05-07T05:18:01;11.67;81.01
72772;SHT30;60894;42.544;1.516;2023-05-07T05:20:28;11.61;81.29
72772;SHT30;60894;42.544;1.516;2023-05-07T05:22:55;11.65;81.69
72772;SHT30;60894;42.544;1.516;2023-05-07T05:25:24;11.64;81.37
72772;SHT30;60894;42.544;1.516;2023-05-07T05:27:50;11.73;81.55
72772;SHT30;60894;42.544;1.516;2023-05-07T05:30:17;11.78;82.00
72772;SHT30;60894;42.544;1.516;2023-05-07T05:32:44;11.77;81.69
72772;SHT30;60894;42.544;1.516;2023-05-07T05:35:11;11.70;81.06
72772;SHT30;60894;42.544;1.516;2023-05-07T05:37:38;11.61;81.94
72772;SHT30;60894;42.544;1.516;2023-05-07T05:40:06;11.64;81.55
72772;SHT30;60894;42.544;1.516;2023-05-07T05:42:35;11.64;81.32
72772;SHT30;60894;42.544;1.516;2023-05-07T05:45:02;11.64;81.09
72772;SHT30;60894;42.544;1.516;2023-05-07T05:47:29;11.75;81.17
72772;SHT30;60894;42.544;1.516;2023-05-07T05:49:56;11.81;81.91
72772;SHT30;60894;42.544;1.516;2023-05-07T05:52:23;11.86;82.23
72772;SHT30;60894;42.544;1.516;2023-05-07T05:54:50;11.85;82.09
72772;SHT30;60894;42.544;1.516;2023-05-07T05:57:17;11.86;81.86
72772;SHT30;60894;42.544;1.516;2023-05-07T05:59:46;11.84;81.65
72772;SHT30;60894;42.544;1.516;2023-05-07T06:02:13;11.81;81.50
72772;SHT30;60894;42.544;1.516;2023-05-07T06:04:40;11.82;81.82
72772;SHT30;60894;42.544;1.516;2023-05-07T06:07:08;11.88;81.74
72772;SHT30;60894;42.544;1.516;2023-05-07T06:09:34;11.89;81.50
72772;SHT30;60894;42.544;1.516;2023-05-07T06:12:01;11.94;81.19
72772;SHT30;60894;42.544;1.516;2023-05-07T06:14:28;11.94;81.29
72772;SHT30;60894;42.544;1.516;2023-05-07T06:16:57;11.95;80.86
72772;SHT30;60894;42.544;1.516;2023-05-07T06:19:24;11.98;80.99
72772;SHT30;60894;42.544;1.516;2023-05-07T06:21:52;12.01;80.69
72772;SHT30;60894;42.544;1.516;2023-05-07T06:24:19;12.05;80.28
72772;SHT30;60894;42.544;1.516;2023-05-07T06:26:46;12.06;80.48
72772;SHT30;60894;42.544;1.516;2023-05-07T06:29:12;12.11;79.66
72772;SHT30;60894;42.544;1.516;2023-05-07T06:31:39;12.18;79.06
72772;SHT30;60894;42.544;1.516;2023-05-07T06:34:08;12.22;79.29
72772;SHT30;60894;42.544;1.516;2023-05-07T06:36:35;12.26;79.01
72772;SHT30;60894;42.544;1.516;2023-05-07T06:39:02;12.18;79.51
72772;SHT30;60894;42.544;1.516;2023-05-07T06:41:29;12.15;78.61
72772;SHT30;60894;42.544;1.516;2023-05-07T06:43:56;12.05;79.19
72772;SHT30;60894;42.544;1.516;2023-05-07T06:46:23;12.18;79.04
72772;SHT30;60894;42.544;1.516;2023-05-07T06:48:50;12.30;78.21
72772;SHT30;60894;42.544;1.516;2023-05-07T06:51:19;12.49;78.17
72772;SHT30;60894;42.544;1.516;2023-05-07T06:53:46;12.64;79.31
72772;SHT30;60894;42.544;1.516;2023-05-07T06:56:12;12.87;78.24
72772;SHT30;60894;42.544;1.516;2023-05-07T06:58:39;12.95;76.74
72772;SHT30;60894;42.544;1.516;2023-05-07T07:01:06;12.95;76.46
72772;SHT30;60894;42.544;1.516;2023-05-07T07:03:33;12.94;75.18
72772;SHT30;60894;42.544;1.516;2023-05-07T07:06:00;12.98;75.27
72772;SHT30;60894;42.544;1.516;2023-05-07T07:08:30;13.14;74.85
72772;SHT30;60894;42.544;1.516;2023-05-07T07:10:57;13.31;74.44
72772;SHT30;60894;42.544;1.516;2023-05-07T07:13:24;13.46;74.48
72772;SHT30;60894;42.544;1.516;2023-05-07T07:15:51;13.62;73.74
72772;SHT30;60894;42.544;1.516;2023-05-07T07:18:18;13.54;73.99
72772;SHT30;60894;42.544;1.516;2023-05-07T07:20:45;13.49;73.42
72772;SHT30;60894;42.544;1.516;2023-05-07T07:23:12;13.42;73.77
72772;SHT30;60894;42.544;1.516;2023-05-07T07:25:41;13.41;75.28
72772;SHT30;60894;42.544;1.516;2023-05-07T07:28:08;13.46;76.47
72772;SHT30;60894;42.544;1.516;2023-05-07T07:30:36;13.39;75.53
72772;SHT30;60894;42.544;1.516;2023-05-07T07:33:03;13.42;75.49
72772;SHT30;60894;42.544;1.516;2023-05-07T07:35:30;13.42;75.01
72772;SHT30;60894;42.544;1.516;2023-05-07T07:37:57;13.54;75.79
72772;SHT30;60894;42.544;1.516;2023-05-07T07:40:24;13.65;76.09
72772;SHT30;60894;42.544;1.516;2023-05-07T07:42:53;13.70;76.09
72772;SHT30;60894;42.544;1.516;2023-05-07T07:45:20;13.72;75.26
72772;SHT30;60894;42.544;1.516;2023-05-07T07:47:47;13.89;75.01
72772;SHT30;60894;42.544;1.516;2023-05-07T07:50:14;14.13;73.93
72772;SHT30;60894;42.544;1.516;2023-05-07T07:52:41;14.21;73.82
72772;SHT30;60894;42.544;1.516;2023-05-07T07:55:08;14.57;74.62
72772;SHT30;60894;42.544;1.516;2023-05-07T07:57:35;14.47;70.30
72772;SHT30;60894;42.544;1.516;2023-05-07T08:00:05;14.54;69.94
72772;SHT30;60894;42.544;1.516;2023-05-07T08:02:32;14.63;70.42
72772;SHT30;60894;42.544;1.516;2023-05-07T08:04:59;14.67;70.55
72772;SHT30;60894;42.544;1.516;2023-05-07T08:07:26;14.64;70.39
72772;SHT30;60894;42.544;1.516;2023-05-07T08:09:53;14.69;69.27
72772;SHT30;60894;42.544;1.516;2023-05-07T08:12:20;14.71;69.95
72772;SHT30;60894;42.544;1.516;2023-05-07T08:14:47;14.67;69.52
72772;SHT30;60894;42.544;1.516;2023-05-07T08:17:15;14.78;70.42
72772;SHT30;60894;42.544;1.516;2023-05-07T08:19:42;14.86;70.13
72772;SHT30;60894;42.544;1.516;2023-05-07T08:22:09;14.96;68.45
72772;SHT30;60894;42.544;1.516;2023-05-07T08:24:37;14.84;67.74
72772;SHT30;60894;42.544;1.516;2023-05-07T08:27:04;14.92;69.48
72772;SHT30;60894;42.544;1.516;2023-05-07T08:29:31;14.86;69.34
72772;SHT30;60894;42.544;1.516;2023-05-07T08:31:58;14.86;69.18
72772;SHT30;60894;42.544;1.516;2023-05-07T08:34:26;14.98;68.87
72772;SHT30;60894;42.544;1.516;2023-05-07T08:36:53;15.12;68.49
72772;SHT30;60894;42.544;1.516;2023-05-07T08:39:20;15.26;66.38
72772;SHT30;60894;42.544;1.516;2023-05-07T08:41:48;15.33;64.96
72772;SHT30;60894;42.544;1.516;2023-05-07T08:44:21;15.44;64.57
72772;SHT30;60894;42.544;1.516;2023-05-07T08:46:51;15.63;64.92
72772;SHT30;60894;42.544;1.516;2023-05-07T08:49:19;15.74;62.94
72772;SHT30;60894;42.544;1.516;2023-05-07T08:51:48;15.76;61.90
72772;SHT30;60894;42.544;1.516;2023-05-07T08:54:16;15.71;61.03
72772;SHT30;60894;42.544;1.516;2023-05-07T08:56:43;15.83;61.95
72772;SHT30;60894;42.544;1.516;2023-05-07T08:59:10;16.00;59.96
72772;SHT30;60894;42.544;1.516;2023-05-07T09:01:37;16.11;60.06
72772;SHT30;60894;42.544;1.516;2023-05-07T09:04:04;16.19;59.17
72772;SHT30;60894;42.544;1.516;2023-05-07T09:06:32;16.19;58.21
72772;SHT30;60894;42.544;1.516;2023-05-07T09:09:01;16.32;59.23
72772;SHT30;60894;42.544;1.516;2023-05-07T09:11:30;16.44;59.41
72772;SHT30;60894;42.544;1.516;2023-05-07T09:13:58;16.45;58.29
72772;SHT30;60894;42.544;1.516;2023-05-07T09:16:29;16.66;57.98
72772;SHT30;60894;42.544;1.516;2023-05-07T09:18:58;16.83;56.66
72772;SHT30;60894;42.544;1.516;2023-05-07T09:21:25;17.09;57.76
72772;SHT30;60894;42.544;1.516;2023-05-07T09:23:54;17.24;56.69
72772;SHT30;60894;42.544;1.516;2023-05-07T09:26:23;17.47;54.10
72772;SHT30;60894;42.544;1.516;2023-05-07T09:28:51;17.64;51.68
72772;SHT30;60894;42.544;1.516;2023-05-07T09:31:18;17.78;51.05
72772;SHT30;60894;42.544;1.516;2023-05-07T09:33:45;17.82;49.56
72772;SHT30;60894;42.544;1.516;2023-05-07T09:36:12;17.90;49.37
72772;SHT30;60894;42.544;1.516;2023-05-07T09:38:39;17.83;47.86
72772;SHT30;60894;42.544;1.516;2023-05-07T09:41:08;17.74;48.22
72772;SHT30;60894;42.544;1.516;2023-05-07T09:43:38;17.58;47.84
72772;SHT30;60894;42.544;1.516;2023-05-07T09:46:07;17.38;48.68
72772;SHT30;60894;42.544;1.516;2023-05-07T09:48:37;17.20;49.18
72772;SHT30;60894;42.544;1.516;2023-05-07T09:51:11;17.21;48.90
72772;SHT30;60894;42.544;1.516;2023-05-07T09:53:43;16.99;48.87
72772;SHT30;60894;42.544;1.516;2023-05-07T09:56:13;16.96;49.83
72772;SHT30;60894;42.544;1.516;2023-05-07T09:58:42;16.93;49.89
72772;SHT30;60894;42.544;1.516;2023-05-07T10:01:10;16.76;50.42
72772;SHT30;60894;42.544;1.516;2023-05-07T10:03:39;16.69;52.67
72772;SHT30;60894;42.544;1.516;2023-05-07T10:06:08;16.45;54.58
72772;SHT30;60894;42.544;1.516;2023-05-07T10:08:36;16.39;54.38
72772;SHT30;60894;42.544;1.516;2023-05-07T10:11:04;16.18;53.73
72772;SHT30;60894;42.544;1.516;2023-05-07T10:13:31;16.21;56.11
72772;SHT30;60894;42.544;1.516;2023-05-07T10:16:01;16.19;53.78
72772;SHT30;60894;42.544;1.516;2023-05-07T10:18:30;16.15;54.60
72772;SHT30;60894;42.544;1.516;2023-05-07T10:21:02;16.32;53.77
72772;SHT30;60894;42.544;1.516;2023-05-07T10:23:31;16.65;53.73
72772;SHT30;60894;42.544;1.516;2023-05-07T10:26:01;16.87;52.65
72772;SHT30;60894;42.544;1.516;2023-05-07T10:28:30;17.11;52.72
72772;SHT30;60894;42.544;1.516;2023-05-07T10:31:14;17.21;51.70
72772;SHT30;60894;42.544;1.516;2023-05-07T10:33:47;16.96;49.65
72772;SHT30;60894;42.544;1.516;2023-05-07T10:36:17;16.96;51.48
72772;SHT30;60894;42.544;1.516;2023-05-07T10:38:45;16.99;52.03
72772;SHT30;60894;42.544;1.516;2023-05-07T10:41:12;16.86;51.19
72772;SHT30;60894;42.544;1.516;2023-05-07T10:43:41;16.68;51.96
72772;SHT30;60894;42.544;1.516;2023-05-07T10:46:17;16.59;53.19
72772;SHT30;60894;42.544;1.516;2023-05-07T10:49:06;16.49;54.84
72772;SHT30;60894;42.544;1.516;2023-05-07T10:51:33;16.29;56.74
72772;SHT30;60894;42.544;1.516;2023-05-07T10:54:20;16.19;56.27
72772;SHT30;60894;42.544;1.516;2023-05-07T10:56:47;16.09;58.19
72772;SHT30;60894;42.544;1.516;2023-05-07T10:59:33;16.00;59.38
72772;SHT30;60894;42.544;1.516;2023-05-07T11:02:07;15.96;59.64
72772;SHT30;60894;42.544;1.516;2023-05-07T11:04:37;15.93;60.38
72772;SHT30;60894;42.544;1.516;2023-05-07T11:07:24;16.00;59.39
72772;SHT30;60894;42.544;1.516;2023-05-07T11:09:58;16.09;57.58
72772;SHT30;60894;42.544;1.516;2023-05-07T11:12:51;16.02;61.48
72772;SHT30;60894;42.544;1.516;2023-05-07T11:15:36;15.87;61.32
72772;SHT30;60894;42.544;1.516;2023-05-07T11:18:05;15.60;64.87
72772;SHT30;60894;42.544;1.516;2023-05-07T11:20:46;15.30;68.21
72772;SHT30;60894;42.544;1.516;2023-05-07T11:26:13;14.98;72.72
72772;SHT30;60894;42.544;1.516;2023-05-07T11:28:41;14.55;74.06
72772;SHT30;60894;42.544;1.516;2023-05-07T11:31:09;14.36;74.72
72772;SHT30;60894;42.544;1.516;2023-05-07T11:33:38;14.34;75.71
72772;SHT30;60894;42.544;1.516;2023-05-07T11:36:08;14.17;70.50
72772;SHT30;60894;42.544;1.516;2023-05-07T11:38:35;14.20;73.89
72772;SHT30;60894;42.544;1.516;2023-05-07T11:41:05;14.31;79.47
72772;SHT30;60894;42.544;1.516;2023-05-07T11:43:32;14.45;76.45
72772;SHT30;60894;42.544;1.516;2023-05-07T11:46:08;14.58;75.61
72772;SHT30;60894;42.544;1.516;2023-05-07T11:48:37;14.75;74.62
72772;SHT30;60894;42.544;1.516;2023-05-07T11:51:05;14.84;72.07
72772;SHT30;60894;42.544;1.516;2023-05-07T11:53:38;14.75;66.61
72772;SHT30;60894;42.544;1.516;2023-05-07T11:56:09;14.86;64.97
72772;SHT30;60894;42.544;1.516;2023-05-07T11:58:37;14.86;71.42
72772;SHT30;60894;42.544;1.516;2023-05-07T12:01:04;14.85;70.08
72772;SHT30;60894;42.544;1.516;2023-05-07T12:03:34;14.78;71.66
72772;SHT30;60894;42.544;1.516;2023-05-07T12:06:05;14.72;70.33
72772;SHT30;60894;42.544;1.516;2023-05-07T12:08:33;14.77;70.47
72772;SHT30;60894;42.544;1.516;2023-05-07T12:11:02;14.58;69.95
72772;SHT30;60894;42.544;1.516;2023-05-07T12:13:29;14.40;71.44
72772;SHT30;60894;42.544;1.516;2023-05-07T12:15:56;14.26;76.22
72772;SHT30;60894;42.544;1.516;2023-05-07T12:18:24;14.13;79.40
72772;SHT30;60894;42.544;1.516;2023-05-07T12:20:51;13.96;81.70
72772;SHT30;60894;42.544;1.516;2023-05-07T12:23:20;13.82;80.92
72772;SHT30;60894;42.544;1.516;2023-05-07T12:25:47;13.63;80.94
72772;SHT30;60894;42.544;1.516;2023-05-07T12:28:14;13.48;79.35
72772;SHT30;60894;42.544;1.516;2023-05-07T12:30:42;13.19;80.71
72772;SHT30;60894;42.544;1.516;2023-05-07T12:33:10;13.22;80.53
72772;SHT30;60894;42.544;1.516;2023-05-07T12:35:39;13.34;78.17
72772;SHT30;60894;42.544;1.516;2023-05-07T12:38:08;13.41;76.53
72772;SHT30;60894;42.544;1.516;2023-05-07T12:40:39;13.55;78.10
72772;SHT30;60894;42.544;1.516;2023-05-07T12:43:06;13.56;77.29
72772;SHT30;60894;42.544;1.516;2023-05-07T12:45:37;13.66;74.90
72772;SHT30;60894;42.544;1.516;2023-05-07T12:48:04;13.91;74.69
72772;SHT30;60894;42.544;1.516;2023-05-07T12:50:32;14.12;75.68
72772;SHT30;60894;42.544;1.516;2023-05-07T12:52:59;14.63;76.89
72772;SHT30;60894;42.544;1.516;2023-05-07T12:55:28;15.29;77.19
72772;SHT30;60894;42.544;1.516;2023-05-07T12:57:57;15.51;75.65
72772;SHT30;60894;42.544;1.516;2023-05-07T13:00:37;15.37;67.66
72772;SHT30;60894;42.544;1.516;2023-05-07T13:03:04;15.42;70.21
72772;SHT30;60894;42.544;1.516;2023-05-07T13:05:32;15.43;70.99
72772;SHT30;60894;42.544;1.516;2023-05-07T13:07:59;15.43;73.82
72772;SHT30;60894;42.544;1.516;2023-05-07T13:10:27;15.33;72.25
72772;SHT30;60894;42.544;1.516;2023-05-07T13:12:54;15.32;73.25
72772;SHT30;60894;42.544;1.516;2023-05-07T13:15:22;15.20;73.49
72772;SHT30;60894;42.544;1.516;2023-05-07T13:17:49;14.96;73.58
72772;SHT30;60894;42.544;1.516;2023-05-07T13:20:16;14.91;75.79
72772;SHT30;60894;42.544;1.516;2023-05-07T13:22:43;14.74;73.67
72772;SHT30;60894;42.544;1.516;2023-05-07T13:25:10;14.67;73.33
72772;SHT30;60894;42.544;1.516;2023-05-07T13:27:37;14.51;75.05
72772;SHT30;60894;42.544;1.516;2023-05-07T13:30:05;14.33;75.90
72772;SHT30;60894;42.544;1.516;2023-05-07T13:32:33;14.14;75.78
72772;SHT30;60894;42.544;1.516;2023-05-07T13:35:00;14.18;77.34
72772;SHT30;60894;42.544;1.516;2023-05-07T13:37:27;14.07;76.78
72772;SHT30;60894;42.544;1.516;2023-05-07T13:39:54;14.07;77.03
72772;SHT30;60894;42.544;1.516;2023-05-07T13:42:21;14.07;79.59
72772;SHT30;60894;42.544;1.516;2023-05-07T13:44:48;14.12;81.25
72772;SHT30;60894;42.544;1.516;2023-05-07T13:47:15;14.07;80.11
72772;SHT30;60894;42.544;1.516;2023-05-07T13:49:44;14.16;80.59
72772;SHT30;60894;42.544;1.516;2023-05-07T13:52:10;14.14;79.74
72772;SHT30;60894;42.544;1.516;2023-05-07T13:54:48;14.28;78.40
72772;SHT30;60894;42.544;1.516;2023-05-07T13:57:15;14.09;78.10
72772;SHT30;60894;42.544;1.516;2023-05-07T13:59:42;14.12;76.93
72772;SHT30;60894;42.544;1.516;2023-05-07T14:02:09;14.18;77.17
72772;SHT30;60894;42.544;1.516;2023-05-07T14:04:37;14.27;76.52
72772;SHT30;60894;42.544;1.516;2023-05-07T14:07:04;14.34;76.81
72772;SHT30;60894;42.544;1.516;2023-05-07T14:09:31;14.48;76.89
72772;SHT30;60894;42.544;1.516;2023-05-07T14:11:59;14.40;75.74
72772;SHT30;60894;42.544;1.516;2023-05-07T14:14:26;14.24;74.61
72772;SHT30;60894;42.544;1.516;2023-05-07T14:16:53;14.17;74.74
72772;SHT30;60894;42.544;1.516;2023-05-07T14:19:20;14.20;74.94
72772;SHT30;60894;42.544;1.516;2023-05-07T14:21:48;14.36;78.31
72772;SHT30;60894;42.544;1.516;2023-05-07T14:24:15;14.41;78.69
72772;SHT30;60894;42.544;1.516;2023-05-07T14:26:42;14.37;78.08
72772;SHT30;60894;42.544;1.516;2023-05-07T14:29:12;14.45;78.43
72772;SHT30;60894;42.544;1.516;2023-05-07T14:31:41;14.38;78.26
72772;SHT30;60894;42.544;1.516;2023-05-07T14:34:07;14.31;76.79
72772;SHT30;60894;42.544;1.516;2023-05-07T14:36:34;14.26;77.69
72772;SHT30;60894;42.544;1.516;2023-05-07T14:39:01;14.18;77.88
72772;SHT30;60894;42.544;1.516;2023-05-07T14:41:28;14.26;78.56
72772;SHT30;60894;42.544;1.516;2023-05-07T14:43:56;14.10;79.01
72772;SHT30;60894;42.544;1.516;2023-05-07T14:46:25;14.03;78.67
72772;SHT30;60894;42.544;1.516;2023-05-07T14:48:52;14.10;79.46
72772;SHT30;60894;42.544;1.516;2023-05-07T14:51:20;14.07;78.77
72772;SHT30;60894;42.544;1.516;2023-05-07T14:53:47;14.16;77.45
72772;SHT30;60894;42.544;1.516;2023-05-07T14:56:14;14.23;79.49
72772;SHT30;60894;42.544;1.516;2023-05-07T14:58:42;14.40;79.66
72772;SHT30;60894;42.544;1.516;2023-05-07T15:01:09;14.37;79.01
72772;SHT30;60894;42.544;1.516;2023-05-07T15:03:37;14.44;78.57
72772;SHT30;60894;42.544;1.516;2023-05-07T15:06:04;14.40;78.11
72772;SHT30;60894;42.544;1.516;2023-05-07T15:08:31;14.45;79.26
72772;SHT30;60894;42.544;1.516;2023-05-07T15:10:58;14.41;79.22
72772;SHT30;60894;42.544;1.516;2023-05-07T15:13:25;14.45;78.40
72772;SHT30;60894;42.544;1.516;2023-05-07T15:15:52;14.36;78.36
72772;SHT30;60894;42.544;1.516;2023-05-07T15:18:19;14.52;79.44
72772;SHT30;60894;42.544;1.516;2023-05-07T15:20:48;14.54;79.92
72772;SHT30;60894;42.544;1.516;2023-05-07T15:23:14;14.57;79.78
72772;SHT30;60894;42.544;1.516;2023-05-07T15:25:41;14.52;80.42
72772;SHT30;60894;42.544;1.516;2023-05-07T15:28:08;14.47;80.33
72772;SHT30;60894;42.544;1.516;2023-05-07T15:30:36;14.44;80.48
72772;SHT30;60894;42.544;1.516;2023-05-07T15:33:02;14.44;79.39
72772;SHT30;60894;42.544;1.516;2023-05-07T15:35:30;14.38;81.22
72772;SHT30;60894;42.544;1.516;2023-05-07T15:37:58;14.55;83.33